sensor_id;sensor_type;location;lat;lon;timestamp;pressure;altitude;pressure_sealevel;temperature;humidity
30714;BME280;17465;47.934;33.430;2024-02-26T00:01:33;57367.50;;;-140.43;86.00
30714;BME280;17465;47.934;33.430;2024-02-26T00:04:03;57398.21;;;-140.43;87.34
30714;BME280;17465;47.934;33.430;2024-02-26T00:06:34;57378.09;;;-140.43;87.81
30714;BME280;17465;47.934;33.430;2024-02-26T00:09:04;57385.50;;;-140.43;87.30
30714;BME280;17465;47.934;33.430;2024-02-26T00:11:36;57369.62;;;-140.43;87.96
30714;BME280;17465;47.934;33.430;2024-02-26T00:14:06;57369.62;;;-140.43;87.96
30714;BME280;17465;47.934;33.430;2024-02-26T00:16:41;57370.68;;;-140.43;87.49
30714;BME280;17465;47.934;33.430;2024-02-26T00:19:11;57343.14;;;-140.43;88.61
30714;BME280;17465;47.934;33.430;2024-02-26T00:21:41;57331.49;;;-140.43;88.84
30714;BME280;17465;47.934;33.430;2024-02-26T00:24:12;57366.44;;;-140.43;88.30
30714;BME280;17465;47.934;33.430;2024-02-26T00:26:42;57356.91;;;-140.43;88.01
30714;BME280;17465;47.934;33.430;2024-02-26T00:29:12;57312.43;;;-140.43;87.83
30714;BME280;17465;47.934;33.430;2024-02-26T00:31:43;57347.38;;;-140.43;88.71
30714;BME280;17465;47.934;33.430;2024-02-26T00:34:13;57362.20;;;-140.43;88.71
30714;BME280;17465;47.934;33.430;2024-02-26T00:36:43;57362.20;;;-140.43;88.71
30714;BME280;17465;47.934;33.430;2024-02-26T00:39:14;57349.49;;;-140.43;88.09
30714;BME280;17465;47.934;33.430;2024-02-26T00:41:44;57367.50;;;-140.43;87.07
30714;BME280;17465;47.934;33.430;2024-02-26T00:44:14;57317.72;;;-140.43;87.59
30714;BME280;17465;47.934;33.430;2024-02-26T00:46:44;57317.72;;;-140.43;87.59
30714;BME280;17465;47.934;33.430;2024-02-26T00:49:15;57347.38;;;-140.43;88.42
30714;BME280;17465;47.934;33.430;2024-02-26T00:51:45;57346.32;;;-140.43;88.31
30714;BME280;17465;47.934;33.430;2024-02-26T00:54:15;57353.73;;;-140.43;89.34
30714;BME280;17465;47.934;33.430;2024-02-26T00:56:45;57354.79;;;-140.43;89.18
30714;BME280;17465;47.934;33.430;2024-02-26T00:59:16;57354.79;;;-140.43;89.18
30714;BME280;17465;47.934;33.430;2024-02-26T01:01:46;57377.03;;;-140.43;88.92
30714;BME280;17465;47.934;33.430;2024-02-26T01:04:16;57359.03;;;-140.43;88.13
30714;BME280;17465;47.934;33.430;2024-02-26T01:06:46;57365.38;;;-140.43;88.86
30714;BME280;17465;47.934;33.430;2024-02-26T01:09:17;57353.73;;;-140.43;88.81
30714;BME280;17465;47.934;33.430;2024-02-26T01:11:47;57353.73;;;-140.43;88.64
30714;BME280;17465;47.934;33.430;2024-02-26T01:14:17;57353.73;;;-140.43;88.64
30714;BME280;17465;47.934;33.430;2024-02-26T01:16:47;57361.14;;;-140.43;89.71
30714;BME280;17465;47.934;33.430;2024-02-26T01:19:17;57354.79;;;-140.43;88.12
30714;BME280;17465;47.934;33.430;2024-02-26T01:21:48;57366.44;;;-140.43;89.06
30714;BME280;17465;47.934;33.430;2024-02-26T01:24:18;57361.14;;;-140.43;87.79
30714;BME280;17465;47.934;33.430;2024-02-26T01:26:48;57364.32;;;-140.43;88.46
30714;BME280;17465;47.934;33.430;2024-02-26T01:29:18;57364.32;;;-140.43;88.46
30714;BME280;17465;47.934;33.430;2024-02-26T01:31:49;57320.90;;;-140.43;87.54
30714;BME280;17465;47.934;33.430;2024-02-26T01:34:19;57329.37;;;-140.43;87.64
30714;BME280;17465;47.934;33.430;2024-02-26T01:36:49;57347.38;;;-140.43;87.76
30714;BME280;17465;47.934;33.430;2024-02-26T01:39:20;57367.50;;;-140.43;87.57
30714;BME280;17465;47.934;33.430;2024-02-26T01:41:50;57334.67;;;-140.43;88.26
30714;BME280;17465;47.934;33.430;2024-02-26T01:44:20;57344.20;;;-140.43;86.72
30714;BME280;17465;47.934;33.430;2024-02-26T01:46:51;57339.96;;;-140.43;87.31
30714;BME280;17465;47.934;33.430;2024-02-26T01:49:22;57355.85;;;-140.43;87.36
30714;BME280;17465;47.934;33.430;2024-02-26T01:51:53;57351.61;;;-140.43;87.54
30714;BME280;17465;47.934;33.430;2024-02-26T01:54:23;57350.55;;;-140.43;88.56
30714;BME280;17465;47.934;33.430;2024-02-26T01:56:54;57350.55;;;-140.43;87.72
30714;BME280;17465;47.934;33.430;2024-02-26T01:59:25;57339.96;;;-140.43;87.82
30714;BME280;17465;47.934;33.430;2024-02-26T02:01:57;57346.32;;;-140.43;87.94
30714;BME280;17465;47.934;33.430;2024-02-26T02:04:28;57346.32;;;-140.43;87.94
30714;BME280;17465;47.934;33.430;2024-02-26T02:07:00;57335.73;;;-140.43;87.33
30714;BME280;17465;47.934;33.430;2024-02-26T02:09:31;57346.32;;;-140.43;89.43
30714;BME280;17465;47.934;33.430;2024-02-26T02:12:02;57370.68;;;-140.43;88.23
30714;BME280;17465;47.934;33.430;2024-02-26T02:14:33;57355.85;;;-140.43;89.58
30714;BME280;17465;47.934;33.430;2024-02-26T02:17:03;57344.20;;;-140.43;89.82
30714;BME280;17465;47.934;33.430;2024-02-26T02:19:33;57326.20;;;-140.43;89.54
30714;BME280;17465;47.934;33.430;2024-02-26T02:22:03;57344.20;;;-140.43;89.50
30714;BME280;17465;47.934;33.430;2024-02-26T02:24:34;57344.20;;;-140.43;89.50
30714;BME280;17465;47.934;33.430;2024-02-26T02:27:04;57330.43;;;-140.43;90.08
30714;BME280;17465;47.934;33.430;2024-02-26T02:29:35;57344.20;;;-140.43;91.23
30714;BME280;17465;47.934;33.430;2024-02-26T02:32:05;57332.55;;;-140.43;90.07
30714;BME280;17465;47.934;33.430;2024-02-26T02:34:36;57339.96;;;-140.43;91.58
30714;BME280;17465;47.934;33.430;2024-02-26T02:37:06;57344.20;;;-140.43;92.31
30714;BME280;17465;47.934;33.430;2024-02-26T02:39:36;57363.26;;;-140.43;93.17
30714;BME280;17465;47.934;33.430;2024-02-26T02:42:06;57363.26;;;-140.43;93.17
30714;BME280;17465;47.934;33.430;2024-02-26T02:44:37;57363.26;;;-140.43;92.03
30714;BME280;17465;47.934;33.430;2024-02-26T02:47:07;57361.14;;;-140.43;93.41
30714;BME280;17465;47.934;33.430;2024-02-26T02:49:37;57361.14;;;-140.43;93.41
30714;BME280;17465;47.934;33.430;2024-02-26T02:52:07;57390.80;;;-140.43;92.50
30714;BME280;17465;47.934;33.430;2024-02-26T02:54:38;57390.80;;;-140.43;92.50
30714;BME280;17465;47.934;33.430;2024-02-26T02:57:09;57367.50;;;-140.43;92.68
30714;BME280;17465;47.934;33.430;2024-02-26T02:59:39;57351.61;;;-140.43;93.29
30714;BME280;17465;47.934;33.430;2024-02-26T03:02:10;57352.67;;;-140.43;93.47
30714;BME280;17465;47.934;33.430;2024-02-26T03:04:40;57352.67;;;-140.43;93.47
30714;BME280;17465;47.934;33.430;2024-02-26T03:07:10;57393.98;;;-140.43;93.93
30714;BME280;17465;47.934;33.430;2024-02-26T03:09:40;57366.44;;;-140.43;92.41
30714;BME280;17465;47.934;33.430;2024-02-26T03:12:11;57350.55;;;-140.43;92.94
30714;BME280;17465;47.934;33.430;2024-02-26T03:14:41;57337.84;;;-140.43;92.26
30714;BME280;17465;47.934;33.430;2024-02-26T03:17:11;57361.14;;;-140.43;93.17
30714;BME280;17465;47.934;33.430;2024-02-26T03:19:41;57352.67;;;-140.43;90.87
30714;BME280;17465;47.934;33.430;2024-02-26T03:22:11;57357.96;;;-140.43;92.08
30714;BME280;17465;47.934;33.430;2024-02-26T03:24:41;57360.08;;;-140.43;91.61
30714;BME280;17465;47.934;33.430;2024-02-26T03:27:12;57360.08;;;-140.43;91.61
30714;BME280;17465;47.934;33.430;2024-02-26T03:29:42;57354.79;;;-140.43;91.24
30714;BME280;17465;47.934;33.430;2024-02-26T03:32:12;57354.79;;;-140.43;91.24
30714;BME280;17465;47.934;33.430;2024-02-26T03:34:42;57348.43;;;-140.43;91.90
30714;BME280;17465;47.934;33.430;2024-02-26T03:37:13;57343.14;;;-140.43;91.19
30714;BME280;17465;47.934;33.430;2024-02-26T03:39:43;57367.50;;;-140.43;92.48
30714;BME280;17465;47.934;33.430;2024-02-26T03:42:13;57367.50;;;-140.43;92.48
30714;BME280;17465;47.934;33.430;2024-02-26T03:44:43;57348.43;;;-140.43;90.92
30714;BME280;17465;47.934;33.430;2024-02-26T03:47:13;57348.43;;;-140.43;90.92
30714;BME280;17465;47.934;33.430;2024-02-26T03:49:44;57367.50;;;-140.43;91.97
30714;BME280;17465;47.934;33.430;2024-02-26T03:52:14;57362.20;;;-140.43;92.19
30714;BME280;17465;47.934;33.430;2024-02-26T03:54:44;57382.32;;;-140.43;92.16
30714;BME280;17465;47.934;33.430;2024-02-26T03:57:15;57359.03;;;-140.43;92.52
30714;BME280;17465;47.934;33.430;2024-02-26T03:59:45;57334.67;;;-140.43;91.90
30714;BME280;17465;47.934;33.430;2024-02-26T04:02:16;57342.08;;;-140.43;90.48
30714;BME280;17465;47.934;33.430;2024-02-26T04:04:47;57369.62;;;-140.43;91.83
30714;BME280;17465;47.934;33.430;2024-02-26T04:07:18;57369.62;;;-140.43;91.83
30714;BME280;17465;47.934;33.430;2024-02-26T04:09:48;57360.08;;;-140.43;91.04
30714;BME280;17465;47.934;33.430;2024-02-26T04:12:18;57360.08;;;-140.43;91.04
30714;BME280;17465;47.934;33.430;2024-02-26T04:14:49;57344.20;;;-140.43;91.36
30714;BME280;17465;47.934;33.430;2024-02-26T04:17:19;57363.26;;;-140.43;91.18
30714;BME280;17465;47.934;33.430;2024-02-26T04:19:49;57396.09;;;-140.43;91.68
30714;BME280;17465;47.934;33.430;2024-02-26T04:22:20;57353.73;;;-140.43;92.38
30714;BME280;17465;47.934;33.430;2024-02-26T04:24:50;57326.20;;;-140.43;91.92
30714;BME280;17465;47.934;33.430;2024-02-26T04:27:20;57359.03;;;-140.43;93.37
30714;BME280;17465;47.934;33.430;2024-02-26T04:29:50;57379.15;;;-140.43;93.28
30714;BME280;17465;47.934;33.430;2024-02-26T04:32:21;57355.85;;;-140.43;92.58
30714;BME280;17465;47.934;33.430;2024-02-26T04:34:51;57348.43;;;-140.43;92.99
30714;BME280;17465;47.934;33.430;2024-02-26T04:37:21;57319.84;;;-140.43;92.10
30714;BME280;17465;47.934;33.430;2024-02-26T04:39:51;57357.96;;;-140.43;93.32
30714;BME280;17465;47.934;33.430;2024-02-26T04:42:22;57332.55;;;-140.43;92.95
30714;BME280;17465;47.934;33.430;2024-02-26T04:44:52;57332.55;;;-140.43;92.95
30714;BME280;17465;47.934;33.430;2024-02-26T04:47:23;57357.96;;;-140.43;92.77
30714;BME280;17465;47.934;33.430;2024-02-26T04:49:53;57371.73;;;-140.43;93.78
30714;BME280;17465;47.934;33.430;2024-02-26T04:52:24;57371.73;;;-140.43;93.78
30714;BME280;17465;47.934;33.430;2024-02-26T04:54:54;57392.91;;;-140.43;94.60
30714;BME280;17465;47.934;33.430;2024-02-26T04:57:24;57375.97;;;-140.43;95.04
30714;BME280;17465;47.934;33.430;2024-02-26T04:59:54;57366.44;;;-140.43;94.25
30714;BME280;17465;47.934;33.430;2024-02-26T05:02:24;57342.08;;;-140.43;94.18
30714;BME280;17465;47.934;33.430;2024-02-26T05:04:55;57364.32;;;-140.43;94.16
30714;BME280;17465;47.934;33.430;2024-02-26T05:07:25;57351.61;;;-140.43;94.43
30714;BME280;17465;47.934;33.430;2024-02-26T05:09:55;57351.61;;;-140.43;94.43
30714;BME280;17465;47.934;33.430;2024-02-26T05:12:25;57360.08;;;-140.43;94.32
30714;BME280;17465;47.934;33.430;2024-02-26T05:14:55;57354.79;;;-140.43;94.90
30714;BME280;17465;47.934;33.430;2024-02-26T05:17:26;57351.61;;;-140.43;95.07
30714;BME280;17465;47.934;33.430;2024-02-26T05:19:56;57363.26;;;-140.43;94.92
30714;BME280;17465;47.934;33.430;2024-02-26T05:22:26;57363.26;;;-140.43;94.92
30714;BME280;17465;47.934;33.430;2024-02-26T05:24:56;57335.73;;;-140.43;94.57
30714;BME280;17465;47.934;33.430;2024-02-26T05:27:27;57353.73;;;-140.43;93.01
30714;BME280;17465;47.934;33.430;2024-02-26T05:29:57;57368.55;;;-140.43;93.33
30714;BME280;17465;47.934;33.430;2024-02-26T05:32:27;57341.02;;;-140.43;93.02
30714;BME280;17465;47.934;33.430;2024-02-26T05:34:57;57330.43;;;-140.43;93.65
30714;BME280;17465;47.934;33.430;2024-02-26T05:37:28;57336.79;;;-140.43;93.26
30714;BME280;17465;47.934;33.430;2024-02-26T05:39:58;57351.61;;;-140.43;92.87
30714;BME280;17465;47.934;33.430;2024-02-26T05:42:29;57353.73;;;-140.43;93.11
30714;BME280;17465;47.934;33.430;2024-02-26T05:44:59;57355.85;;;-140.43;92.56
30714;BME280;17465;47.934;33.430;2024-02-26T05:47:30;57355.85;;;-140.43;92.56
30714;BME280;17465;47.934;33.430;2024-02-26T05:50:00;57361.14;;;-140.43;93.01
30714;BME280;17465;47.934;33.430;2024-02-26T05:52:31;57367.50;;;-140.43;92.28
30714;BME280;17465;47.934;33.430;2024-02-26T05:55:01;57367.50;;;-140.43;92.28
30714;BME280;17465;47.934;33.430;2024-02-26T05:57:35;57351.61;;;-140.43;92.63
30714;BME280;17465;47.934;33.430;2024-02-26T06:00:06;57337.84;;;-140.43;92.48
30714;BME280;17465;47.934;33.430;2024-02-26T06:02:38;57337.84;;;-140.43;92.48
30714;BME280;17465;47.934;33.430;2024-02-26T06:05:09;57349.49;;;-140.43;91.88
30714;BME280;17465;47.934;33.430;2024-02-26T06:07:39;57360.08;;;-140.43;91.75
30714;BME280;17465;47.934;33.430;2024-02-26T06:10:10;57360.08;;;-140.43;91.75
30714;BME280;17465;47.934;33.430;2024-02-26T06:12:40;57337.84;;;-140.43;91.43
30714;BME280;17465;47.934;33.430;2024-02-26T06:15:10;57345.26;;;-140.43;91.42
30714;BME280;17465;47.934;33.430;2024-02-26T06:17:41;57348.43;;;-140.43;91.44
30714;BME280;17465;47.934;33.430;2024-02-26T06:20:12;57348.43;;;-140.43;91.44
30714;BME280;17465;47.934;33.430;2024-02-26T06:22:42;57344.20;;;-140.43;91.88
30714;BME280;17465;47.934;33.430;2024-02-26T06:25:12;57349.49;;;-140.43;93.09
30714;BME280;17465;47.934;33.430;2024-02-26T06:27:42;57349.49;;;-140.43;93.09
30714;BME280;17465;47.934;33.430;2024-02-26T06:30:13;57323.02;;;-140.43;91.12
30714;BME280;17465;47.934;33.430;2024-02-26T06:32:44;57323.02;;;-140.43;91.12
30714;BME280;17465;47.934;33.430;2024-02-26T06:35:14;57364.32;;;-140.43;89.77
30714;BME280;17465;47.934;33.430;2024-02-26T06:37:44;57364.32;;;-140.43;89.77
30714;BME280;17465;47.934;33.430;2024-02-26T06:40:15;57336.79;;;-140.43;91.52
30714;BME280;17465;47.934;33.430;2024-02-26T06:42:45;57348.43;;;-140.43;91.64
30714;BME280;17465;47.934;33.430;2024-02-26T06:45:17;57321.96;;;-140.43;90.96
30714;BME280;17465;47.934;33.430;2024-02-26T06:47:50;57321.96;;;-140.43;90.96
30714;BME280;17465;47.934;33.430;2024-02-26T06:50:21;57335.73;;;-140.43;90.16
30714;BME280;17465;47.934;33.430;2024-02-26T06:52:52;57354.79;;;-140.43;90.46
30714;BME280;17465;47.934;33.430;2024-02-26T06:55:22;57310.31;;;-140.43;89.45
30714;BME280;17465;47.934;33.430;2024-02-26T06:57:52;57310.31;;;-140.43;89.45
30714;BME280;17465;47.934;33.430;2024-02-26T07:00:24;57325.14;;;-140.43;86.77
30714;BME280;17465;47.934;33.430;2024-02-26T07:02:55;57337.84;;;-140.43;88.29
30714;BME280;17465;47.934;33.430;2024-02-26T07:05:25;57324.07;;;-140.43;86.75
30714;BME280;17465;47.934;33.430;2024-02-26T07:07:55;57339.96;;;-140.43;86.37
30714;BME280;17465;47.934;33.430;2024-02-26T07:10:26;57337.84;;;-140.43;85.62
30714;BME280;17465;47.934;33.430;2024-02-26T07:12:56;57337.84;;;-140.43;85.62
30714;BME280;17465;47.934;33.430;2024-02-26T07:15:26;57339.96;;;-140.43;86.68
30714;BME280;17465;47.934;33.430;2024-02-26T07:17:56;57328.31;;;-140.43;88.00
30714;BME280;17465;47.934;33.430;2024-02-26T07:20:27;57325.14;;;-140.43;86.50
30714;BME280;17465;47.934;33.430;2024-02-26T07:23:00;57318.78;;;-140.43;87.30
30714;BME280;17465;47.934;33.430;2024-02-26T07:25:30;57318.78;;;-140.43;87.30
30714;BME280;17465;47.934;33.430;2024-02-26T07:28:01;57319.84;;;-140.43;86.90
30714;BME280;17465;47.934;33.430;2024-02-26T07:30:31;57330.43;;;-140.43;86.35
30714;BME280;17465;47.934;33.430;2024-02-26T07:33:03;57330.43;;;-140.43;86.35
30714;BME280;17465;47.934;33.430;2024-02-26T07:35:34;57328.31;;;-140.43;86.99
30714;BME280;17465;47.934;33.430;2024-02-26T07:38:06;57333.61;;;-140.43;86.62
30714;BME280;17465;47.934;33.430;2024-02-26T07:40:39;57333.61;;;-140.43;86.62
30714;BME280;17465;47.934;33.430;2024-02-26T07:43:10;57301.84;;;-140.43;84.42
30714;BME280;17465;47.934;33.430;2024-02-26T07:45:41;57301.84;;;-140.43;84.42
30714;BME280;17465;47.934;33.430;2024-02-26T07:48:11;57333.61;;;-140.43;82.71
30714;BME280;17465;47.934;33.430;2024-02-26T07:50:41;57296.54;;;-140.43;82.75
30714;BME280;17465;47.934;33.430;2024-02-26T07:53:12;57301.84;;;-140.43;82.64
30714;BME280;17465;47.934;33.430;2024-02-26T07:55:42;57307.13;;;-140.43;81.63
30714;BME280;17465;47.934;33.430;2024-02-26T07:58:12;57307.13;;;-140.43;81.63
30714;BME280;17465;47.934;33.430;2024-02-26T08:00:43;57298.66;;;-140.43;79.81
30714;BME280;17465;47.934;33.430;2024-02-26T08:03:13;57310.31;;;-140.43;80.98
30714;BME280;17465;47.934;33.430;2024-02-26T08:05:45;57294.42;;;-140.43;79.92
30714;BME280;17465;47.934;33.430;2024-02-26T08:08:19;57313.48;;;-140.43;79.82
30714;BME280;17465;47.934;33.430;2024-02-26T08:10:56;57317.72;;;-140.43;80.48
30714;BME280;17465;47.934;33.430;2024-02-26T08:13:21;57318.78;;;-140.43;79.99
30714;BME280;17465;47.934;33.430;2024-02-26T08:16:06;57295.48;;;-140.43;79.66
30714;BME280;17465;47.934;33.430;2024-02-26T08:18:32;57315.61;;;-140.43;79.80
30714;BME280;17465;47.934;33.430;2024-02-26T08:21:05;57309.25;;;-140.43;79.27
30714;BME280;17465;47.934;33.430;2024-02-26T08:23:36;57325.14;;;-140.43;78.38
30714;BME280;17465;47.934;33.430;2024-02-26T08:26:06;57325.14;;;-140.43;78.38
30714;BME280;17465;47.934;33.430;2024-02-26T08:28:37;57302.89;;;-140.43;76.82
30714;BME280;17465;47.934;33.430;2024-02-26T08:31:08;57302.89;;;-140.43;76.82
30714;BME280;17465;47.934;33.430;2024-02-26T08:33:38;57275.36;;;-140.43;75.91
30714;BME280;17465;47.934;33.430;2024-02-26T08:36:09;57317.72;;;-140.43;74.59
30714;BME280;17465;47.934;33.430;2024-02-26T08:38:39;57288.07;;;-140.43;74.65
30714;BME280;17465;47.934;33.430;2024-02-26T08:41:10;57323.02;;;-140.43;75.31
30714;BME280;17465;47.934;33.430;2024-02-26T08:43:40;57323.02;;;-140.43;75.31
30714;BME280;17465;47.934;33.430;2024-02-26T08:46:12;57321.96;;;-140.43;75.47
30714;BME280;17465;47.934;33.430;2024-02-26T08:48:43;57290.18;;;-140.43;74.86
30714;BME280;17465;47.934;33.430;2024-02-26T08:51:13;57306.07;;;-140.43;74.79
30714;BME280;17465;47.934;33.430;2024-02-26T08:53:43;57306.07;;;-140.43;74.79
30714;BME280;17465;47.934;33.430;2024-02-26T08:56:14;57321.96;;;-140.43;74.89
30714;BME280;17465;47.934;33.430;2024-02-26T08:58:44;57312.43;;;-140.43;74.25
30714;BME280;17465;47.934;33.430;2024-02-26T09:01:15;57313.48;;;-140.43;74.03
30714;BME280;17465;47.934;33.430;2024-02-26T09:03:46;57302.89;;;-140.43;73.10
30714;BME280;17465;47.934;33.430;2024-02-26T09:06:17;57327.25;;;-140.43;72.59
30714;BME280;17465;47.934;33.430;2024-02-26T09:08:47;57301.84;;;-140.43;71.43
30714;BME280;17465;47.934;33.430;2024-02-26T09:11:18;57332.55;;;-140.43;71.41
30714;BME280;17465;47.934;33.430;2024-02-26T09:13:48;57308.19;;;-140.43;71.47
30714;BME280;17465;47.934;33.430;2024-02-26T09:16:19;57303.95;;;-140.43;71.22
30714;BME280;17465;47.934;33.430;2024-02-26T09:18:53;57300.78;;;-140.43;70.75
30714;BME280;17465;47.934;33.430;2024-02-26T09:21:25;57299.72;;;-140.43;70.22
30714;BME280;17465;47.934;33.430;2024-02-26T09:23:55;57310.31;;;-140.43;69.04
30714;BME280;17465;47.934;33.430;2024-02-26T09:26:26;57342.08;;;-140.43;68.48
30714;BME280;17465;47.934;33.430;2024-02-26T09:28:56;57342.08;;;-140.43;68.48
30714;BME280;17465;47.934;33.430;2024-02-26T09:31:27;57337.84;;;-140.43;68.00
30714;BME280;17465;47.934;33.430;2024-02-26T09:33:57;57327.25;;;-140.43;68.57
30714;BME280;17465;47.934;33.430;2024-02-26T09:36:29;57336.79;;;-140.43;68.14
30714;BME280;17465;47.934;33.430;2024-02-26T09:39:00;57364.32;;;-140.43;67.56
30714;BME280;17465;47.934;33.430;2024-02-26T09:41:31;57336.79;;;-140.43;67.97
30714;BME280;17465;47.934;33.430;2024-02-26T09:44:02;57328.31;;;-140.43;67.58
30714;BME280;17465;47.934;33.430;2024-02-26T09:46:35;57348.43;;;-140.43;67.43
30714;BME280;17465;47.934;33.430;2024-02-26T09:49:06;57348.43;;;-140.43;67.43
30714;BME280;17465;47.934;33.430;2024-02-26T09:51:39;57341.02;;;-140.43;67.25
30714;BME280;17465;47.934;33.430;2024-02-26T09:54:13;57321.96;;;-140.43;67.19
30714;BME280;17465;47.934;33.430;2024-02-26T09:56:47;57331.49;;;-140.43;67.04
30714;BME280;17465;47.934;33.430;2024-02-26T09:59:22;57370.68;;;-140.43;66.83
30714;BME280;17465;47.934;33.430;2024-02-26T10:02:00;57370.68;;;-140.43;66.83
30714;BME280;17465;47.934;33.430;2024-02-26T10:04:29;57356.91;;;-140.43;67.16
30714;BME280;17465;47.934;33.430;2024-02-26T10:07:00;57356.91;;;-140.43;67.16
30714;BME280;17465;47.934;33.430;2024-02-26T10:09:32;57365.38;;;-140.43;66.06
30714;BME280;17465;47.934;33.430;2024-02-26T10:12:10;57319.84;;;-140.43;67.34
30714;BME280;17465;47.934;33.430;2024-02-26T10:14:41;57319.84;;;-140.43;67.34
30714;BME280;17465;47.934;33.430;2024-02-26T10:17:13;57324.07;;;-140.43;67.21
30714;BME280;17465;47.934;33.430;2024-02-26T10:19:44;57339.96;;;-140.43;67.03
30714;BME280;17465;47.934;33.430;2024-02-26T10:22:17;57339.96;;;-140.43;67.03
30714;BME280;17465;47.934;33.430;2024-02-26T10:24:47;57329.37;;;-140.43;67.09
30714;BME280;17465;47.934;33.430;2024-02-26T10:27:25;57361.14;;;-140.43;66.26
30714;BME280;17465;47.934;33.430;2024-02-26T10:29:56;57338.90;;;-140.43;66.24
30714;BME280;17465;47.934;33.430;2024-02-26T10:32:27;57380.21;;;-140.43;66.38
30714;BME280;17465;47.934;33.430;2024-02-26T10:34:58;57380.21;;;-140.43;66.38
30714;BME280;17465;47.934;33.430;2024-02-26T10:37:29;57356.91;;;-140.43;66.50
30714;BME280;17465;47.934;33.430;2024-02-26T10:39:59;57356.91;;;-140.43;66.50
30714;BME280;17465;47.934;33.430;2024-02-26T10:42:31;57350.55;;;-140.43;66.51
30714;BME280;17465;47.934;33.430;2024-02-26T10:45:04;57350.55;;;-140.43;66.63
30714;BME280;17465;47.934;33.430;2024-02-26T10:47:37;57350.55;;;-140.43;66.63
30714;BME280;17465;47.934;33.430;2024-02-26T10:50:09;57365.38;;;-140.43;67.40
30714;BME280;17465;47.934;33.430;2024-02-26T10:52:39;57339.96;;;-140.43;66.11
30714;BME280;17465;47.934;33.430;2024-02-26T10:55:15;57388.68;;;-140.43;66.43
30714;BME280;17465;47.934;33.430;2024-02-26T10:57:48;57369.62;;;-140.43;65.80
30714;BME280;17465;47.934;33.430;2024-02-26T11:00:20;57369.62;;;-140.43;65.80
30714;BME280;17465;47.934;33.430;2024-02-26T11:02:51;57375.97;;;-140.43;64.84
30714;BME280;17465;47.934;33.430;2024-02-26T11:05:23;57396.09;;;-140.43;64.73
30714;BME280;17465;47.934;33.430;2024-02-26T11:10:48;57382.32;;;-140.43;64.74
30714;BME280;17465;47.934;33.430;2024-02-26T11:13:19;57379.15;;;-140.43;64.51
30714;BME280;17465;47.934;33.430;2024-02-26T11:15:53;57379.15;;;-140.43;64.51
30714;BME280;17465;47.934;33.430;2024-02-26T11:18:28;57373.85;;;-140.43;64.64
30714;BME280;17465;47.934;33.430;2024-02-26T11:21:00;57395.03;;;-140.43;63.95
30714;BME280;17465;47.934;33.430;2024-02-26T11:23:31;57395.03;;;-140.43;63.95
30714;BME280;17465;47.934;33.430;2024-02-26T11:26:03;57390.80;;;-140.43;64.37
30714;BME280;17465;47.934;33.430;2024-02-26T11:28:35;57371.73;;;-140.43;64.83
30714;BME280;17465;47.934;33.430;2024-02-26T11:31:09;57379.15;;;-140.43;64.45
30714;BME280;17465;47.934;33.430;2024-02-26T11:33:38;57379.15;;;-140.43;64.45
30714;BME280;17465;47.934;33.430;2024-02-26T11:36:12;57372.79;;;-140.43;64.38
30714;BME280;17465;47.934;33.430;2024-02-26T11:38:43;57372.79;;;-140.43;64.76
30714;BME280;17465;47.934;33.430;2024-02-26T11:41:14;57384.44;;;-140.43;65.05
30714;BME280;17465;47.934;33.430;2024-02-26T11:43:59;57400.33;;;-140.43;64.32
30714;BME280;17465;47.934;33.430;2024-02-26T11:46:31;57421.51;;;-140.43;63.72
30714;BME280;17465;47.934;33.430;2024-02-26T11:49:03;57409.86;;;-140.43;64.09
30714;BME280;17465;47.934;33.430;2024-02-26T11:51:38;57425.75;;;-140.43;64.01
30714;BME280;17465;47.934;33.430;2024-02-26T11:54:37;57424.69;;;-140.43;63.82
30714;BME280;17465;47.934;33.430;2024-02-26T11:56:50;57424.69;;;-140.43;63.82
30714;BME280;17465;47.934;33.430;2024-02-26T11:59:39;57403.51;;;-140.43;64.18
30714;BME280;17465;47.934;33.430;2024-02-26T12:02:10;57399.27;;;-140.43;64.60
30714;BME280;17465;47.934;33.430;2024-02-26T12:04:42;57392.91;;;-140.43;65.21
30714;BME280;17465;47.934;33.430;2024-02-26T12:07:18;57396.09;;;-140.43;65.25
30714;BME280;17465;47.934;33.430;2024-02-26T12:09:49;57374.91;;;-140.43;65.12
30714;BME280;17465;47.934;33.430;2024-02-26T12:12:19;57409.86;;;-140.43;64.62
30714;BME280;17465;47.934;33.430;2024-02-26T12:14:58;57395.03;;;-140.43;64.86
30714;BME280;17465;47.934;33.430;2024-02-26T12:17:30;57395.03;;;-140.43;64.86
30714;BME280;17465;47.934;33.430;2024-02-26T12:20:10;57403.51;;;-140.43;64.29
30714;BME280;17465;47.934;33.430;2024-02-26T12:22:41;57403.51;;;-140.43;64.29
30714;BME280;17465;47.934;33.430;2024-02-26T12:25:14;57443.75;;;-140.43;63.16
30714;BME280;17465;47.934;33.430;2024-02-26T12:27:44;57443.75;;;-140.43;63.16
30714;BME280;17465;47.934;33.430;2024-02-26T12:30:15;57411.98;;;-140.43;63.32
30714;BME280;17465;47.934;33.430;2024-02-26T12:32:48;57404.57;;;-140.43;63.46
30714;BME280;17465;47.934;33.430;2024-02-26T12:35:19;57404.57;;;-140.43;63.46
30714;BME280;17465;47.934;33.430;2024-02-26T12:37:50;57404.57;;;-140.43;64.07
30714;BME280;17465;47.934;33.430;2024-02-26T12:40:31;57404.57;;;-140.43;64.07
30714;BME280;17465;47.934;33.430;2024-02-26T12:43:11;57373.85;;;-140.43;64.73
30714;BME280;17465;47.934;33.430;2024-02-26T12:45:41;57384.44;;;-140.43;64.68
30714;BME280;17465;47.934;33.430;2024-02-26T12:48:13;57391.86;;;-140.43;65.24
30714;BME280;17465;47.934;33.430;2024-02-26T12:50:47;57414.10;;;-140.43;64.51
30714;BME280;17465;47.934;33.430;2024-02-26T12:53:18;57365.38;;;-140.43;65.30